createdAt,value
2022-10-11T00:01:01.864Z,14.33
2022-10-11T00:03:31.214Z,8.73
2022-10-11T00:05:59.483Z,13.33
2022-10-11T00:08:27.889Z,9.20
2022-10-11T00:11:00.043Z,7.43
2022-10-11T00:13:28.647Z,9.70
2022-10-11T00:15:57.164Z,11.60
2022-10-11T00:18:25.686Z,10.17
2022-10-11T00:21:08.758Z,13.20
2022-10-11T00:23:37.063Z,8.73
2022-10-11T00:26:06.440Z,10.60
2022-10-11T00:28:36.420Z,8.87
2022-10-11T00:31:13.824Z,8.37
2022-10-11T00:33:42.191Z,8.70
2022-10-11T00:36:13.995Z,9.70
2022-10-11T00:38:42.414Z,7.00
2022-10-11T00:41:10.971Z,8.43
2022-10-11T00:43:39.344Z,8.67
2022-10-11T00:46:19.510Z,8.07
2022-10-11T00:48:54.411Z,7.83
2022-10-11T00:51:40.201Z,6.60
2022-10-11T00:54:09.957Z,9.47
2022-10-11T00:56:39.738Z,11.57
2022-10-11T00:59:14.466Z,10.20
2022-10-11T01:01:43.634Z,6.33
2022-10-11T01:04:12.127Z,7.83
2022-10-11T01:06:40.685Z,6.57
2022-10-11T01:09:09.065Z,7.60
2022-10-11T01:11:38.638Z,9.23
2022-10-11T01:14:25.589Z,9.43
2022-10-11T01:17:06.825Z,12.53
2022-10-11T01:20:12.748Z,13.17
2022-10-11T01:22:49.911Z,13.73
2022-10-11T01:25:39.821Z,10.30
2022-10-11T01:28:40.694Z,12.53
2022-10-11T01:31:47.798Z,11.83
2022-10-11T01:34:27.084Z,12.63
2022-10-11T01:37:05.459Z,13.17
2022-10-11T01:39:47.413Z,10.87
2022-10-11T01:42:15.939Z,11.90
2022-10-11T01:44:46.172Z,9.80
2022-10-11T01:47:14.588Z,9.03
2022-10-11T01:49:44.692Z,9.77
2022-10-11T01:52:13.001Z,10.03
2022-10-11T01:55:09.512Z,8.80
2022-10-11T01:57:52.675Z,10.07
2022-10-11T02:00:23.077Z,8.83
2022-10-11T02:03:36.015Z,11.73
2022-10-11T02:06:13.102Z,9.37
2022-10-11T02:08:44.763Z,10.07
2022-10-11T02:11:25.219Z,8.73
2022-10-11T02:14:08.840Z,8.70
2022-10-11T02:16:45.107Z,9.27
2022-10-11T02:19:15.813Z,8.63
2022-10-11T02:21:45.040Z,10.03
2022-10-11T02:24:17.248Z,10.07
2022-10-11T02:26:47.943Z,10.67
2022-10-11T02:29:16.376Z,9.87
2022-10-11T02:31:44.820Z,14.20
2022-10-11T02:34:19.727Z,14.67
2022-10-11T02:37:02.049Z,17.57
2022-10-11T02:39:56.220Z,12.70
2022-10-11T02:42:33.054Z,14.60
2022-10-11T02:45:03.677Z,13.10
2022-10-11T02:47:32.146Z,16.60
2022-10-11T02:50:01.159Z,18.93
2022-10-11T02:52:30.309Z,16.43
2022-10-11T02:54:58.626Z,11.77
2022-10-11T02:57:27.142Z,10.73
2022-10-11T02:59:55.752Z,12.40
2022-10-11T03:02:24.172Z,11.73
2022-10-11T03:04:52.548Z,11.93
2022-10-11T03:07:20.881Z,10.70
2022-10-11T03:09:49.252Z,9.43
2022-10-11T03:12:17.702Z,14.87
2022-10-11T03:14:46.080Z,19.30
2022-10-11T03:17:34.989Z,19.67
2022-10-11T03:20:02.866Z,19.73
2022-10-11T03:22:31.201Z,16.40
2022-10-11T03:25:03.621Z,14.23
2022-10-11T03:27:33.515Z,14.07
2022-10-11T03:30:02.071Z,10.60
2022-10-11T03:32:31.510Z,10.63
2022-10-11T03:34:59.923Z,8.73
2022-10-11T03:37:28.245Z,8.90
2022-10-11T03:39:56.609Z,6.80
2022-10-11T03:42:25.005Z,6.67
2022-10-11T03:44:53.430Z,10.53
2022-10-11T03:47:21.810Z,11.60
2022-10-11T03:49:50.211Z,9.30
2022-10-11T03:52:18.582Z,11.67
2022-10-11T03:54:46.946Z,11.73
2022-10-11T03:57:15.404Z,12.13
2022-10-11T03:59:44.265Z,8.30
2022-10-11T04:02:14.864Z,9.23
2022-10-11T04:04:43.918Z,10.70
2022-10-11T04:07:12.265Z,13.83
2022-10-11T04:09:41.056Z,11.37
2022-10-11T04:12:09.392Z,10.97
2022-10-11T04:14:37.749Z,11.17
2022-10-11T04:17:06.294Z,9.10
2022-10-11T04:19:37.521Z,9.37
2022-10-11T04:22:05.872Z,9.90
2022-10-11T04:24:34.978Z,11.47
2022-10-11T04:27:03.251Z,10.63
2022-10-11T04:29:32.858Z,7.90
2022-10-11T04:32:01.637Z,6.70
2022-10-11T04:34:30.323Z,7.43
2022-10-11T04:36:59.890Z,7.87
2022-10-11T04:39:28.823Z,7.73
2022-10-11T04:41:57.450Z,7.10
2022-10-11T04:44:25.793Z,8.83
2022-10-11T04:46:54.155Z,7.90
2022-10-11T04:49:22.655Z,7.43
2022-10-11T04:51:51.049Z,9.07
2022-10-11T04:54:19.514Z,8.33
2022-10-11T04:56:47.935Z,6.70
2022-10-11T04:59:16.339Z,8.80
2022-10-11T05:01:45.039Z,5.73
2022-10-11T05:04:13.584Z,7.83
2022-10-11T05:06:42.067Z,6.50
2022-10-11T05:09:10.491Z,4.73
2022-10-11T05:11:39.727Z,6.23
2022-10-11T05:14:09.980Z,7.33
2022-10-11T05:16:38.862Z,6.37
2022-10-11T05:19:07.245Z,6.80
2022-10-11T05:21:35.632Z,6.47
2022-10-11T05:24:04.244Z,6.80
2022-10-11T05:26:32.486Z,9.57
2022-10-11T05:29:00.894Z,9.60
2022-10-11T05:31:29.353Z,9.10
2022-10-11T05:33:57.757Z,8.53
2022-10-11T05:36:26.313Z,11.20
2022-10-11T05:38:54.886Z,7.87
2022-10-11T05:41:23.601Z,8.73
2022-10-11T05:43:51.970Z,7.83
2022-10-11T05:46:20.506Z,8.30
2022-10-11T05:48:49.044Z,10.70
2022-10-11T05:51:17.541Z,7.73
2022-10-11T05:53:46.100Z,13.23
2022-10-11T05:56:22.232Z,8.13
2022-10-11T05:58:51.261Z,9.53
2022-10-11T06:01:24.364Z,8.57
2022-10-11T06:03:54.310Z,11.57
2022-10-11T06:06:22.907Z,9.63
2022-10-11T06:08:51.282Z,8.50
2022-10-11T06:11:27.750Z,12.00
2022-10-11T06:13:58.268Z,10.07
2022-10-11T06:16:26.735Z,9.63
2022-10-11T06:18:58.035Z,8.10
2022-10-11T06:21:26.553Z,6.90
2022-10-11T06:24:00.927Z,6.90
2022-10-11T06:26:30.065Z,4.83
2022-10-11T06:28:59.315Z,6.50
2022-10-11T06:31:28.013Z,8.97
2022-10-11T06:33:56.400Z,10.83
2022-10-11T06:36:24.866Z,10.50
2022-10-11T06:38:54.053Z,11.87
2022-10-11T06:41:24.839Z,11.87
2022-10-11T06:43:53.786Z,10.83
2022-10-11T06:46:24.421Z,10.57
2022-10-11T06:48:52.784Z,9.10
2022-10-11T06:51:21.940Z,8.07
2022-10-11T06:53:52.097Z,7.57
2022-10-11T06:56:20.573Z,7.90
2022-10-11T06:58:49.141Z,9.47
2022-10-11T07:01:19.384Z,8.07
2022-10-11T07:03:48.373Z,6.73
2022-10-11T07:06:21.965Z,7.50
2022-10-11T07:08:50.375Z,10.53
2022-10-11T07:11:23.313Z,10.43
2022-10-11T07:14:01.873Z,7.83
2022-10-11T07:16:30.513Z,8.83
2022-10-11T07:19:00.918Z,7.73
2022-10-11T07:21:30.247Z,7.50
2022-10-11T07:23:58.872Z,8.00
2022-10-11T07:26:27.814Z,9.27
2022-10-11T07:28:56.294Z,6.47
2022-10-11T07:31:25.836Z,6.93
2022-10-11T07:33:54.311Z,9.97
2022-10-11T07:36:23.572Z,7.83
2022-10-11T07:38:52.006Z,10.90
2022-10-11T07:41:20.765Z,10.07
2022-10-11T07:43:50.072Z,8.40
2022-10-11T07:46:18.687Z,8.33
2022-10-11T07:48:47.111Z,9.23
2022-10-11T07:51:17.380Z,9.47
2022-10-11T07:53:49.647Z,9.10
2022-10-11T07:56:20.036Z,10.33
2022-10-11T07:58:57.473Z,9.83
2022-10-11T08:01:26.476Z,9.40
2022-10-11T08:03:55.001Z,10.47
2022-10-11T08:06:26.361Z,9.30
2022-10-11T08:08:54.744Z,7.10
2022-10-11T08:11:27.744Z,8.33
2022-10-11T08:13:56.130Z,6.77
2022-10-11T08:16:24.640Z,8.90
2022-10-11T08:18:54.768Z,9.83
2022-10-11T08:21:23.155Z,10.43
2022-10-11T08:23:51.525Z,12.73
2022-10-11T08:26:19.894Z,13.73
2022-10-11T08:28:48.375Z,12.07
2022-10-11T08:31:16.847Z,8.50
2022-10-11T08:33:45.270Z,8.03
2022-10-11T08:36:13.720Z,9.03
2022-10-11T08:38:42.245Z,7.90
2022-10-11T08:41:21.117Z,8.23
2022-10-11T08:44:11.246Z,7.97
2022-10-11T08:46:40.483Z,8.07
2022-10-11T08:49:10.074Z,8.73
2022-10-11T08:51:47.521Z,10.20
2022-10-11T08:54:45.112Z,7.73
2022-10-11T08:57:19.957Z,10.13
2022-10-11T08:59:58.248Z,8.13
2022-10-11T09:03:03.030Z,8.53
2022-10-11T09:05:23.635Z,6.63
2022-10-11T09:08:01.836Z,8.23
2022-10-11T09:10:36.049Z,6.70
2022-10-11T09:13:31.823Z,7.03
2022-10-11T09:16:13.729Z,8.87
2022-10-11T09:19:19.020Z,7.87
2022-10-11T09:21:55.716Z,5.93
2022-10-11T09:24:35.973Z,7.03
2022-10-11T09:27:14.885Z,8.87
2022-10-11T09:30:03.657Z,7.20
2022-10-11T09:32:35.594Z,8.00
2022-10-11T09:35:12.412Z,6.50
2022-10-11T09:38:13.014Z,9.32
2022-10-11T09:41:02.034Z,7.93
2022-10-11T09:43:30.609Z,8.38
2022-10-11T09:45:59.090Z,8.32
2022-10-11T09:48:40.755Z,7.00
2022-10-11T09:51:15.225Z,6.30
2022-10-11T09:53:56.806Z,7.17
2022-10-11T09:56:26.631Z,6.47
2022-10-11T09:59:26.799Z,6.10
2022-10-11T10:02:13.787Z,7.65
2022-10-11T10:04:55.128Z,8.03
2022-10-11T10:07:23.636Z,8.63
2022-10-11T10:09:53.061Z,7.77
2022-10-11T10:12:23.845Z,6.65
2022-10-11T10:15:07.256Z,7.18
2022-10-11T10:17:36.301Z,7.68
2022-10-11T10:20:06.018Z,8.57
2022-10-11T10:22:35.710Z,8.30
2022-10-11T10:25:08.275Z,7.15
2022-10-11T10:27:36.951Z,10.30
2022-10-11T10:30:08.205Z,5.72
2022-10-11T10:33:01.127Z,8.63
2022-10-11T10:35:42.285Z,8.18
2022-10-11T10:38:19.123Z,8.90
2022-10-11T10:40:58.347Z,7.57
2022-10-11T10:43:32.595Z,13.20
2022-10-11T10:46:35.509Z,6.88
2022-10-11T10:52:16.927Z,7.30
2022-10-11T10:54:57.038Z,10.82
2022-10-11T10:57:46.845Z,8.45
2022-10-11T11:00:20.243Z,7.45
2022-10-11T11:02:57.610Z,9.02
2022-10-11T11:05:48.707Z,7.82
2022-10-11T11:08:30.136Z,6.82
2022-10-11T11:11:21.434Z,6.63
2022-10-11T11:14:07.788Z,8.80
2022-10-11T11:16:59.274Z,6.10
2022-10-11T11:19:50.082Z,7.22
2022-10-11T11:22:53.002Z,7.88
2022-10-11T11:25:25.881Z,7.10
2022-10-11T11:28:33.669Z,6.47
2022-10-11T11:31:25.854Z,10.98
2022-10-11T11:34:17.226Z,6.50
2022-10-11T11:36:46.857Z,6.55
2022-10-11T11:39:26.857Z,6.60
2022-10-11T11:42:05.152Z,9.25
2022-10-11T11:44:34.165Z,7.57
2022-10-11T11:47:10.960Z,7.03
2022-10-11T11:50:03.450Z,7.13
2022-10-11T11:52:41.682Z,5.03
2022-10-11T11:55:15.063Z,8.82
2022-10-11T11:57:55.434Z,5.97
2022-10-11T12:00:34.578Z,5.40
2022-10-11T12:03:04.097Z,6.38
2022-10-11T12:05:36.296Z,7.68
2022-10-11T12:08:06.924Z,8.18
2022-10-11T12:10:56.346Z,6.53
2022-10-11T12:13:32.378Z,4.82
2022-10-11T12:16:12.634Z,5.38
2022-10-11T12:18:57.871Z,5.43
2022-10-11T12:21:31.342Z,6.00
2022-10-11T12:24:01.195Z,6.10
2022-10-11T12:26:29.802Z,4.70
2022-10-11T12:29:17.714Z,5.38
2022-10-11T12:32:01.767Z,7.00
2022-10-11T12:34:35.072Z,5.45
2022-10-11T12:37:23.736Z,5.75
2022-10-11T12:39:53.563Z,5.25
2022-10-11T12:42:37.426Z,9.63
2022-10-11T12:45:14.575Z,7.53
2022-10-11T12:48:00.197Z,5.53
2022-10-11T12:50:37.705Z,6.32
2022-10-11T12:53:19.243Z,5.35
2022-10-11T12:56:13.940Z,7.25
2022-10-11T12:58:46.969Z,6.55
2022-10-11T13:01:22.874Z,7.18
2022-10-11T13:03:58.072Z,6.20
2022-10-11T13:06:30.601Z,5.95
2022-10-11T13:09:05.759Z,12.95
2022-10-11T13:11:37.493Z,7.53
2022-10-11T13:14:12.641Z,6.57
2022-10-11T13:16:51.263Z,5.00
2022-10-11T13:19:22.181Z,4.15
2022-10-11T13:21:54.866Z,8.15
2022-10-11T13:24:23.631Z,5.15
2022-10-11T13:26:53.152Z,6.00
2022-10-11T13:29:34.651Z,5.25
2022-10-11T13:32:08.660Z,5.70
2022-10-11T13:34:40.794Z,4.72
2022-10-11T13:37:09.171Z,4.93
2022-10-11T13:39:38.924Z,5.88
2022-10-11T13:42:13.220Z,4.13
2022-10-11T13:44:43.035Z,4.35
2022-10-11T13:47:15.635Z,5.15
2022-10-11T13:49:50.708Z,8.02
2022-10-11T13:52:19.571Z,5.15
2022-10-11T13:55:00.991Z,5.32
2022-10-11T13:57:38.580Z,5.35
2022-10-11T14:00:15.967Z,4.88
2022-10-11T14:03:01.177Z,5.30
2022-10-11T14:05:37.524Z,4.55
2022-10-11T14:08:34.722Z,4.20
2022-10-11T14:11:06.554Z,4.40
2022-10-11T14:13:38.883Z,6.47
2022-10-11T14:16:08.876Z,4.88
2022-10-11T14:18:43.518Z,11.38
2022-10-11T14:21:46.745Z,8.05
2022-10-11T14:24:16.559Z,4.20
2022-10-11T14:26:46.485Z,4.78
2022-10-11T14:29:25.954Z,3.63
2022-10-11T14:32:16.378Z,3.80
2022-10-11T14:34:45.768Z,4.72
2022-10-11T14:37:17.025Z,4.03
2022-10-11T14:39:46.394Z,4.60
2022-10-11T14:42:15.220Z,5.30
2022-10-11T14:44:43.611Z,4.70
2022-10-11T14:47:15.159Z,3.92
2022-10-11T14:49:43.591Z,3.70
2022-10-11T14:52:13.359Z,5.85
2022-10-11T14:54:41.951Z,7.63
2022-10-11T14:57:11.658Z,4.82
2022-10-11T14:59:40.058Z,14.95
2022-10-11T15:02:08.967Z,11.25
2022-10-11T15:04:37.334Z,7.50
2022-10-11T15:07:05.840Z,6.05
2022-10-11T15:09:34.230Z,4.40
2022-10-11T15:12:02.621Z,5.78
2022-10-11T15:14:31.781Z,5.10
2022-10-11T15:17:00.272Z,6.80
2022-10-11T15:19:28.703Z,4.30
2022-10-11T15:21:57.505Z,4.90
2022-10-11T15:24:26.054Z,4.53
2022-10-11T15:26:54.587Z,5.05
2022-10-11T15:29:24.497Z,6.13
2022-10-11T15:31:52.882Z,6.70
2022-10-11T15:34:21.542Z,6.75
2022-10-11T15:36:50.293Z,8.20
2022-10-11T15:39:32.116Z,6.55
2022-10-11T15:42:00.573Z,7.25
2022-10-11T15:44:28.869Z,11.70
2022-10-11T15:46:57.390Z,15.63
2022-10-11T15:49:25.792Z,9.13
2022-10-11T15:51:54.284Z,12.88
2022-10-11T15:54:23.777Z,15.73
2022-10-11T15:56:52.902Z,18.35
2022-10-11T15:59:21.302Z,19.25
2022-10-11T16:01:49.760Z,17.70
2022-10-11T16:04:18.159Z,20.58
2022-10-11T16:06:47.336Z,13.18
2022-10-11T16:09:15.749Z,17.77
2022-10-11T16:11:44.127Z,15.30
2022-10-11T16:14:12.474Z,16.33
2022-10-11T16:16:41.098Z,19.17
2022-10-11T16:19:12.481Z,15.57
2022-10-11T16:21:40.899Z,12.50
2022-10-11T16:24:09.296Z,12.17
2022-10-11T16:26:37.984Z,10.30
2022-10-11T16:29:06.638Z,10.40
2022-10-11T16:31:35.091Z,8.47
2022-10-11T16:34:03.886Z,9.50
2022-10-11T16:36:32.859Z,11.57
2022-10-11T16:39:06.854Z,8.20
2022-10-11T16:41:36.058Z,7.40
2022-10-11T16:44:04.833Z,10.83
2022-10-11T16:46:33.314Z,7.43
2022-10-11T16:49:02.169Z,6.97
2022-10-11T16:51:30.738Z,5.93
2022-10-11T16:53:59.095Z,9.20
2022-10-11T16:56:28.030Z,7.57
2022-10-11T16:58:56.570Z,10.43
2022-10-11T17:01:25.202Z,6.30
2022-10-11T17:03:53.868Z,4.23
2022-10-11T17:06:22.213Z,3.83
2022-10-11T17:08:51.178Z,10.90
2022-10-11T17:11:19.596Z,7.10
2022-10-11T17:13:47.998Z,8.13
2022-10-11T17:16:16.939Z,11.90
2022-10-11T17:18:45.575Z,6.50
2022-10-11T17:21:15.218Z,6.77
2022-10-11T17:23:44.221Z,6.97
2022-10-11T17:26:30.784Z,4.43
2022-10-11T17:29:00.655Z,5.07
2022-10-11T17:31:29.909Z,7.23
2022-10-11T17:34:01.721Z,4.80
2022-10-11T17:36:34.859Z,5.03
2022-10-11T17:39:05.691Z,6.33
2022-10-11T17:41:34.377Z,4.80
2022-10-11T17:44:03.556Z,5.40
2022-10-11T17:46:33.905Z,5.43
2022-10-11T17:49:07.681Z,5.60
2022-10-11T17:51:36.567Z,4.63
2022-10-11T17:54:05.440Z,7.63
2022-10-11T17:56:38.002Z,4.90
2022-10-11T17:59:06.902Z,5.17
2022-10-11T18:01:35.464Z,5.17
2022-10-11T18:04:04.871Z,4.73
2022-10-11T18:06:38.415Z,5.43
2022-10-11T18:09:06.885Z,5.27
2022-10-11T18:11:36.006Z,6.17
2022-10-11T18:14:05.588Z,6.07
2022-10-11T18:16:34.923Z,8.60
2022-10-11T18:19:04.919Z,8.07
2022-10-11T18:21:34.489Z,7.03
2022-10-11T18:24:04.903Z,7.33
2022-10-11T18:26:33.428Z,4.63
2022-10-11T18:29:01.823Z,6.47
2022-10-11T18:31:31.643Z,4.37
2022-10-11T18:34:00.096Z,4.20
2022-10-11T18:36:29.363Z,5.23
2022-10-11T18:39:00.189Z,4.53
2022-10-11T18:41:30.953Z,3.97
2022-10-11T18:44:01.101Z,7.07
2022-10-11T18:46:29.899Z,4.87
2022-10-11T18:49:01.218Z,5.33
2022-10-11T18:51:37.433Z,4.27
2022-10-11T18:54:06.822Z,7.73
2022-10-11T18:56:35.800Z,6.60
2022-10-11T18:59:04.354Z,4.00
2022-10-11T19:01:34.700Z,4.27
2022-10-11T19:04:03.493Z,5.30
2022-10-11T19:06:35.664Z,3.63
2022-10-11T19:09:24.621Z,4.67
2022-10-11T19:11:54.741Z,5.73
2022-10-11T19:14:26.048Z,5.37
2022-10-11T19:16:54.924Z,4.47
2022-10-11T19:19:25.288Z,13.53
2022-10-11T19:21:53.977Z,6.40
2022-10-11T19:24:26.063Z,4.43
2022-10-11T19:27:02.005Z,6.57
2022-10-11T19:29:31.151Z,9.77
2022-10-11T19:32:00.880Z,7.17
2022-10-11T19:34:31.383Z,6.57
2022-10-11T19:37:01.512Z,5.07
2022-10-11T19:39:29.856Z,5.23
2022-10-11T19:41:58.224Z,6.70
2022-10-11T19:44:27.722Z,6.03
2022-10-11T19:46:56.410Z,8.60
2022-10-11T19:49:26.233Z,8.13
2022-10-11T19:51:55.719Z,7.70
2022-10-11T19:54:24.320Z,8.93
2022-10-11T19:56:54.050Z,9.00
2022-10-11T19:59:22.450Z,6.77
2022-10-11T20:01:53.099Z,6.30
2022-10-11T20:07:10.515Z,6.17
2022-10-11T20:09:38.917Z,7.67
2022-10-11T20:12:07.526Z,5.87
2022-10-11T20:14:35.941Z,7.93
2022-10-11T20:17:04.505Z,6.70
2022-10-11T20:19:32.946Z,8.23
2022-10-11T20:22:04.396Z,10.43
2022-10-11T20:24:34.809Z,4.97
2022-10-11T20:27:04.422Z,8.43
2022-10-11T20:29:34.329Z,8.33
2022-10-11T20:32:03.715Z,5.10
2022-10-11T20:34:36.154Z,7.60
2022-10-11T20:37:04.617Z,5.33
2022-10-11T20:39:33.031Z,6.73
2022-10-11T20:42:01.418Z,6.53
2022-10-11T20:44:29.857Z,7.27
2022-10-11T20:47:01.651Z,5.33
2022-10-11T20:49:32.539Z,8.93
2022-10-11T20:52:00.895Z,7.47
2022-10-11T20:54:30.253Z,5.63
2022-10-11T20:56:59.412Z,5.23
2022-10-11T20:59:28.044Z,7.03
2022-10-11T21:01:56.710Z,5.57
2022-10-11T21:04:25.215Z,7.03
2022-10-11T21:06:53.615Z,8.07
2022-10-11T21:09:22.136Z,5.80
2022-10-11T21:11:50.944Z,6.97
2022-10-11T21:14:19.293Z,5.30
2022-10-11T21:16:47.770Z,5.77
2022-10-11T21:19:16.324Z,11.60
2022-10-11T21:21:52.591Z,6.90
2022-10-11T21:24:22.195Z,5.10
2022-10-11T21:26:50.525Z,7.97
2022-10-11T21:29:18.858Z,6.10
2022-10-11T21:31:47.313Z,5.50
2022-10-11T21:34:15.867Z,4.43
2022-10-11T21:36:44.271Z,7.37
2022-10-11T21:39:12.693Z,5.17
2022-10-11T21:41:42.517Z,4.30
2022-10-11T21:44:10.942Z,4.97
2022-10-11T21:47:05.415Z,4.90
2022-10-11T21:49:27.730Z,5.60
2022-10-11T21:51:56.088Z,6.07
2022-10-11T21:54:24.406Z,6.27
2022-10-11T21:56:52.736Z,5.63
2022-10-11T21:59:21.041Z,5.23
2022-10-11T22:01:49.468Z,6.07
2022-10-11T22:04:17.905Z,6.60
2022-10-11T22:06:46.211Z,4.17
2022-10-11T22:09:14.701Z,6.70
2022-10-11T22:11:43.005Z,5.13
2022-10-11T22:14:11.521Z,4.33
2022-10-11T22:16:39.937Z,5.23
2022-10-11T22:19:08.324Z,5.20
2022-10-11T22:21:39.160Z,7.93
2022-10-11T22:24:10.942Z,5.67
2022-10-11T22:26:39.386Z,4.67
2022-10-11T22:29:07.759Z,8.03
2022-10-11T22:31:36.160Z,6.53
2022-10-11T22:34:04.537Z,4.73
2022-10-11T22:36:33.962Z,4.43
2022-10-11T22:39:07.999Z,3.23
2022-10-11T22:41:36.718Z,4.43
2022-10-11T22:44:05.267Z,5.00
2022-10-11T22:46:33.569Z,4.17
2022-10-11T22:49:02.013Z,5.20
2022-10-11T22:51:30.372Z,4.97
2022-10-11T22:53:58.702Z,6.83
2022-10-11T22:56:27.165Z,4.67
2022-10-11T22:58:55.545Z,4.90
2022-10-11T23:01:23.939Z,4.70
2022-10-11T23:03:52.432Z,5.20
2022-10-11T23:06:20.894Z,5.00
2022-10-11T23:08:49.699Z,5.97
2022-10-11T23:11:18.458Z,5.33
2022-10-11T23:13:46.824Z,5.30
2022-10-11T23:16:15.182Z,4.27
2022-10-11T23:18:43.652Z,8.00
2022-10-11T23:21:11.911Z,8.03
2022-10-11T23:23:40.246Z,4.70
2022-10-11T23:26:13.290Z,6.53
2022-10-11T23:28:42.273Z,5.33
2022-10-11T23:31:12.675Z,6.33
2022-10-11T23:33:41.167Z,6.17
2022-10-11T23:36:19.714Z,5.30
2022-10-11T23:38:52.202Z,7.90
2022-10-11T23:41:21.853Z,6.27
2022-10-11T23:43:50.298Z,6.17
2022-10-11T23:46:18.653Z,5.40
2022-10-11T23:48:47.013Z,7.37
2022-10-11T23:51:15.313Z,5.73
2022-10-11T23:53:43.655Z,6.70
2022-10-11T23:56:12.260Z,5.63
2022-10-11T23:58:40.837Z,5.90
